Etusivu
METAR-TAF:

METAR-TAF

Lentoasemat :

Palanga, Liettua

Leveyspiiri: 55-55-12N, Pituuspiiri: 021-03E, korkeus merenpinnasta: 10 m

Tämänhetkinen sää

Tämä raportti tehtiin 15 minuuttia sitten, kello 09.50 UTC
Tuuli 5 kn lännestä, vaihdellen etelän/lounaan ja luoteen välillä
Lämpötila 15°C
Kosteus 59%
Ilmanpaine 1024 hPa
Näkyvyys 10 km tai enemmän
ei pilviä alle 1500 m:ssä eikä cumulonimbus-pilviä

METAR: EYPA 270950Z 26005KT 200V310 CAVOK 15/07 Q1024

Aika: 13:05 (10:05 UTC)

Sääennuste

Tämä raportti tehtiin 5 tuntia ja 5 minuuttia sitten, kello 05.00 UTC
Ennuste voimassa 27. päivästä klo 06 UTC - 28. päivään klo 06 UTC
Tuuli 3 kn eri suunnista
Näkyvyys: 9000 m
Hajanaisia pilviä 4000 ft:n korkeudessa
Tulossa
27. päivästä klo 10 UTC - 27. päivään klo 12 UTC
Tuuli 13 kn lounaasta
Tulossa
27. päivästä klo 17 UTC - 27. päivään klo 19 UTC
Tuuli 3 kn eri suunnista

TAF: EYPA 270500Z 2706/2806 VRB03KT 9000 SCT040 BECMG 2710/2712 23013KT BECMG 2717/2719 VRB03KT

Säähavainnot ja -ennusteet yli 4000 lentoasemalta (METAR- ja TAF-raportit).

Käytössä olevat sääasemat on merkitty karttaan keltaisilla ja punaisilla pisteillä.

Aseta hiiri pisteen päälle nähdäksesi sääaseman nimen.

Klikkaa sitten nähdäksesi säähavainnot ja -ennusteet.

Kartan vaihtaminen: klikkaa mustalla rastilla varustettuja vihreitä pisteitä, niin voit zoomata sisään; viivalla varustettua vihreää pistettä, niin voit zoomata ulos tai vihreitä nuolia, niin pääset viereisille kartoille.


METAR-TAF: